Webster Mills, Pennsylvania
Current Conditions -  °F | °C
As of 3:53 AM on Saturday 22 Nov 2014 (Local Time) from KHGR Reporting Station
Clear Clear  
Wind Chill: 21°   Ceiling: Unl
Heat Index: 21°   Visibility: 10mi
Dew Point: 10°   Wind: 3mph
Humidity: 63%   Direction: 110°ESE
Pressure: 30.47"   Gusts: NA
Location:  39.973°N, 77.9661°W
Report Text: KHGR 220853Z AUTO 11003KT 10SM CLR M06/M12 A3047 RMK AO2 SLP339 T10611122 58010
Loading
Personal Weather Stations






























Interactive Weather Map New forecast layout! Learn more

10-Day Weather Forecast

Advertisements
Track Severe Weather on mobile